sensor_id;sensor_type;location;lat;lon;timestamp;temperature;humidity
22558;DHT22;11445;53.816;8.902;2023-03-11T00:02:15;1.00;99.90
22558;DHT22;11445;53.816;8.902;2023-03-11T00:04:42;1.00;99.90
22558;DHT22;11445;53.816;8.902;2023-03-11T00:07:11;1.00;99.90
22558;DHT22;11445;53.816;8.902;2023-03-11T00:09:38;1.00;99.90
22558;DHT22;11445;53.816;8.902;2023-03-11T00:12:06;1.00;99.90
22558;DHT22;11445;53.816;8.902;2023-03-11T00:14:33;1.00;99.90
22558;DHT22;11445;53.816;8.902;2023-03-11T00:17:00;1.00;99.90
22558;DHT22;11445;53.816;8.902;2023-03-11T00:19:27;1.10;99.90
22558;DHT22;11445;53.816;8.902;2023-03-11T00:21:54;1.00;99.90
22558;DHT22;11445;53.816;8.902;2023-03-11T00:24:23;1.10;99.90
22558;DHT22;11445;53.816;8.902;2023-03-11T00:26:50;1.10;99.90
22558;DHT22;11445;53.816;8.902;2023-03-11T00:29:17;1.10;99.90
22558;DHT22;11445;53.816;8.902;2023-03-11T00:31:45;1.10;99.90
22558;DHT22;11445;53.816;8.902;2023-03-11T00:34:12;1.10;99.90
22558;DHT22;11445;53.816;8.902;2023-03-11T00:36:39;1.10;99.90
22558;DHT22;11445;53.816;8.902;2023-03-11T00:39:06;1.10;99.90
22558;DHT22;11445;53.816;8.902;2023-03-11T00:41:34;1.10;99.90
22558;DHT22;11445;53.816;8.902;2023-03-11T00:44:01;1.10;99.90
22558;DHT22;11445;53.816;8.902;2023-03-11T00:46:28;1.10;99.90
22558;DHT22;11445;53.816;8.902;2023-03-11T00:48:56;1.10;99.90
22558;DHT22;11445;53.816;8.902;2023-03-11T00:51:23;1.10;99.90
22558;DHT22;11445;53.816;8.902;2023-03-11T00:53:50;1.00;99.90
22558;DHT22;11445;53.816;8.902;2023-03-11T00:56:17;1.00;99.90
22558;DHT22;11445;53.816;8.902;2023-03-11T00:58:45;1.00;99.90
22558;DHT22;11445;53.816;8.902;2023-03-11T01:01:14;1.00;99.90
22558;DHT22;11445;53.816;8.902;2023-03-11T01:03:41;1.00;99.90
22558;DHT22;11445;53.816;8.902;2023-03-11T01:06:08;1.00;99.90
22558;DHT22;11445;53.816;8.902;2023-03-11T01:08:36;1.10;99.90
22558;DHT22;11445;53.816;8.902;2023-03-11T01:11:04;1.00;99.90
22558;DHT22;11445;53.816;8.902;2023-03-11T01:13:31;1.00;99.90
22558;DHT22;11445;53.816;8.902;2023-03-11T01:16:01;1.00;99.90
22558;DHT22;11445;53.816;8.902;2023-03-11T01:18:28;1.00;99.90
22558;DHT22;11445;53.816;8.902;2023-03-11T01:20:55;1.00;99.90
22558;DHT22;11445;53.816;8.902;2023-03-11T01:23:22;1.10;99.90
22558;DHT22;11445;53.816;8.902;2023-03-11T01:25:49;1.10;99.90
22558;DHT22;11445;53.816;8.902;2023-03-11T01:28:16;1.10;99.90
22558;DHT22;11445;53.816;8.902;2023-03-11T01:30:44;1.10;99.90
22558;DHT22;11445;53.816;8.902;2023-03-11T01:33:15;1.10;99.90
22558;DHT22;11445;53.816;8.902;2023-03-11T01:35:43;1.10;99.90
22558;DHT22;11445;53.816;8.902;2023-03-11T01:38:11;1.10;99.90
22558;DHT22;11445;53.816;8.902;2023-03-11T01:40:41;1.20;99.90
22558;DHT22;11445;53.816;8.902;2023-03-11T01:43:37;1.10;99.90
22558;DHT22;11445;53.816;8.902;2023-03-11T01:46:11;1.10;99.90
22558;DHT22;11445;53.816;8.902;2023-03-11T01:48:45;1.10;99.90
22558;DHT22;11445;53.816;8.902;2023-03-11T01:51:13;1.10;99.90
22558;DHT22;11445;53.816;8.902;2023-03-11T01:53:41;1.10;99.90
22558;DHT22;11445;53.816;8.902;2023-03-11T01:56:08;1.10;99.90
22558;DHT22;11445;53.816;8.902;2023-03-11T01:58:39;1.20;99.90
22558;DHT22;11445;53.816;8.902;2023-03-11T02:01:06;1.20;99.90
22558;DHT22;11445;53.816;8.902;2023-03-11T02:03:37;1.10;99.90
22558;DHT22;11445;53.816;8.902;2023-03-11T02:06:10;1.20;99.90
22558;DHT22;11445;53.816;8.902;2023-03-11T02:08:38;1.20;99.90
22558;DHT22;11445;53.816;8.902;2023-03-11T02:11:09;1.20;99.90
22558;DHT22;11445;53.816;8.902;2023-03-11T02:13:38;1.20;99.90
22558;DHT22;11445;53.816;8.902;2023-03-11T02:16:06;1.20;99.90
22558;DHT22;11445;53.816;8.902;2023-03-11T02:18:33;1.20;99.90
22558;DHT22;11445;53.816;8.902;2023-03-11T02:21:08;1.30;99.90
22558;DHT22;11445;53.816;8.902;2023-03-11T02:23:44;1.30;99.90
22558;DHT22;11445;53.816;8.902;2023-03-11T02:26:18;1.30;99.90
22558;DHT22;11445;53.816;8.902;2023-03-11T02:28:49;1.30;99.90
22558;DHT22;11445;53.816;8.902;2023-03-11T02:31:17;1.30;99.90
22558;DHT22;11445;53.816;8.902;2023-03-11T02:33:45;1.30;99.90
22558;DHT22;11445;53.816;8.902;2023-03-11T02:36:34;1.20;99.90
22558;DHT22;11445;53.816;8.902;2023-03-11T02:39:02;1.20;99.90
22558;DHT22;11445;53.816;8.902;2023-03-11T02:41:31;1.20;99.90
22558;DHT22;11445;53.816;8.902;2023-03-11T02:44:00;1.20;99.90
22558;DHT22;11445;53.816;8.902;2023-03-11T02:46:28;1.20;99.90
22558;DHT22;11445;53.816;8.902;2023-03-11T02:48:56;1.10;99.90
22558;DHT22;11445;53.816;8.902;2023-03-11T02:51:23;1.10;99.90
22558;DHT22;11445;53.816;8.902;2023-03-11T02:53:52;1.10;99.90
22558;DHT22;11445;53.816;8.902;2023-03-11T02:56:20;1.10;99.90
22558;DHT22;11445;53.816;8.902;2023-03-11T02:58:47;1.20;99.90
22558;DHT22;11445;53.816;8.902;2023-03-11T03:01:16;1.10;99.90
22558;DHT22;11445;53.816;8.902;2023-03-11T03:03:43;1.10;99.90
22558;DHT22;11445;53.816;8.902;2023-03-11T03:06:10;1.10;99.90
22558;DHT22;11445;53.816;8.902;2023-03-11T03:08:37;1.20;99.90
22558;DHT22;11445;53.816;8.902;2023-03-11T03:11:04;1.20;99.90
22558;DHT22;11445;53.816;8.902;2023-03-11T03:13:31;1.20;99.90
22558;DHT22;11445;53.816;8.902;2023-03-11T03:15:58;1.20;99.90
22558;DHT22;11445;53.816;8.902;2023-03-11T03:18:27;1.30;99.90
22558;DHT22;11445;53.816;8.902;2023-03-11T03:20:55;1.30;99.90
22558;DHT22;11445;53.816;8.902;2023-03-11T03:23:22;1.30;99.90
22558;DHT22;11445;53.816;8.902;2023-03-11T03:25:49;1.20;99.90
22558;DHT22;11445;53.816;8.902;2023-03-11T03:28:16;1.20;99.90
22558;DHT22;11445;53.816;8.902;2023-03-11T03:30:44;1.20;99.90
22558;DHT22;11445;53.816;8.902;2023-03-11T03:33:11;1.20;99.90
22558;DHT22;11445;53.816;8.902;2023-03-11T03:35:42;1.20;99.90
22558;DHT22;11445;53.816;8.902;2023-03-11T03:38:09;1.20;99.90
22558;DHT22;11445;53.816;8.902;2023-03-11T03:40:36;1.20;99.90
22558;DHT22;11445;53.816;8.902;2023-03-11T03:43:03;1.20;99.90
22558;DHT22;11445;53.816;8.902;2023-03-11T03:45:30;1.20;99.90
22558;DHT22;11445;53.816;8.902;2023-03-11T03:47:57;1.20;99.90
22558;DHT22;11445;53.816;8.902;2023-03-11T03:50:24;1.20;99.90
22558;DHT22;11445;53.816;8.902;2023-03-11T03:52:53;1.20;99.90
22558;DHT22;11445;53.816;8.902;2023-03-11T03:55:20;1.20;99.90
22558;DHT22;11445;53.816;8.902;2023-03-11T03:57:47;1.30;99.90
22558;DHT22;11445;53.816;8.902;2023-03-11T04:00:15;1.30;99.90
22558;DHT22;11445;53.816;8.902;2023-03-11T04:02:42;1.30;99.90
22558;DHT22;11445;53.816;8.902;2023-03-11T04:05:09;1.30;99.90
22558;DHT22;11445;53.816;8.902;2023-03-11T04:07:36;1.30;99.90
22558;DHT22;11445;53.816;8.902;2023-03-11T04:10:06;1.30;99.90
22558;DHT22;11445;53.816;8.902;2023-03-11T04:12:33;1.30;99.90
22558;DHT22;11445;53.816;8.902;2023-03-11T04:15:00;1.20;99.90
22558;DHT22;11445;53.816;8.902;2023-03-11T04:17:27;1.20;99.90
22558;DHT22;11445;53.816;8.902;2023-03-11T04:19:54;1.20;99.90
22558;DHT22;11445;53.816;8.902;2023-03-11T04:22:21;1.10;99.90
22558;DHT22;11445;53.816;8.902;2023-03-11T04:24:48;1.20;99.90
22558;DHT22;11445;53.816;8.902;2023-03-11T04:27:16;1.20;99.90
22558;DHT22;11445;53.816;8.902;2023-03-11T04:29:43;1.20;99.90
22558;DHT22;11445;53.816;8.902;2023-03-11T04:32:10;1.20;99.90
22558;DHT22;11445;53.816;8.902;2023-03-11T04:34:38;1.20;99.90
22558;DHT22;11445;53.816;8.902;2023-03-11T04:37:05;1.20;99.90
22558;DHT22;11445;53.816;8.902;2023-03-11T04:39:32;1.20;99.90
22558;DHT22;11445;53.816;8.902;2023-03-11T04:41:59;1.20;99.90
22558;DHT22;11445;53.816;8.902;2023-03-11T04:44:28;1.10;99.90
22558;DHT22;11445;53.816;8.902;2023-03-11T04:46:55;1.10;99.90
22558;DHT22;11445;53.816;8.902;2023-03-11T04:49:22;1.20;99.90
22558;DHT22;11445;53.816;8.902;2023-03-11T04:51:49;1.20;99.90
22558;DHT22;11445;53.816;8.902;2023-03-11T04:54:16;1.20;99.90
22558;DHT22;11445;53.816;8.902;2023-03-11T04:56:43;1.20;99.90
22558;DHT22;11445;53.816;8.902;2023-03-11T04:59:10;1.20;99.90
22558;DHT22;11445;53.816;8.902;2023-03-11T05:01:38;1.20;99.90
22558;DHT22;11445;53.816;8.902;2023-03-11T05:04:05;1.20;99.90
22558;DHT22;11445;53.816;8.902;2023-03-11T05:06:32;1.20;99.90
22558;DHT22;11445;53.816;8.902;2023-03-11T05:08:59;1.20;99.90
22558;DHT22;11445;53.816;8.902;2023-03-11T05:11:26;1.20;99.90
22558;DHT22;11445;53.816;8.902;2023-03-11T05:13:53;1.20;99.90
22558;DHT22;11445;53.816;8.902;2023-03-11T05:16:20;1.20;99.90
22558;DHT22;11445;53.816;8.902;2023-03-11T05:18:49;1.20;99.90
22558;DHT22;11445;53.816;8.902;2023-03-11T05:21:16;1.30;99.90
22558;DHT22;11445;53.816;8.902;2023-03-11T05:23:43;1.30;99.90
22558;DHT22;11445;53.816;8.902;2023-03-11T05:26:10;1.30;99.90
22558;DHT22;11445;53.816;8.902;2023-03-11T05:28:37;1.30;99.90
22558;DHT22;11445;53.816;8.902;2023-03-11T05:31:07;1.30;99.90
22558;DHT22;11445;53.816;8.902;2023-03-11T05:33:34;1.30;99.90
22558;DHT22;11445;53.816;8.902;2023-03-11T05:36:07;1.30;99.90
22558;DHT22;11445;53.816;8.902;2023-03-11T05:38:35;1.30;99.90
22558;DHT22;11445;53.816;8.902;2023-03-11T05:41:03;1.30;99.90
22558;DHT22;11445;53.816;8.902;2023-03-11T05:43:30;1.40;99.90
22558;DHT22;11445;53.816;8.902;2023-03-11T05:45:57;1.40;99.90
22558;DHT22;11445;53.816;8.902;2023-03-11T05:48:24;1.40;99.90
22558;DHT22;11445;53.816;8.902;2023-03-11T05:50:51;1.40;99.90
22558;DHT22;11445;53.816;8.902;2023-03-11T05:53:20;1.40;99.90
22558;DHT22;11445;53.816;8.902;2023-03-11T05:55:55;1.40;99.90
22558;DHT22;11445;53.816;8.902;2023-03-11T05:58:22;1.40;99.90
22558;DHT22;11445;53.816;8.902;2023-03-11T06:00:49;1.40;99.90
22558;DHT22;11445;53.816;8.902;2023-03-11T06:03:16;1.40;99.90
22558;DHT22;11445;53.816;8.902;2023-03-11T06:05:46;1.40;99.90
22558;DHT22;11445;53.816;8.902;2023-03-11T06:08:14;1.30;99.90
22558;DHT22;11445;53.816;8.902;2023-03-11T06:10:42;1.30;99.90
22558;DHT22;11445;53.816;8.902;2023-03-11T06:13:10;1.30;99.90
22558;DHT22;11445;53.816;8.902;2023-03-11T06:15:37;1.30;99.90
22558;DHT22;11445;53.816;8.902;2023-03-11T06:18:04;1.30;99.90
22558;DHT22;11445;53.816;8.902;2023-03-11T06:20:31;1.30;99.90
22558;DHT22;11445;53.816;8.902;2023-03-11T06:22:58;1.30;99.90
22558;DHT22;11445;53.816;8.902;2023-03-11T06:25:25;1.30;99.90
22558;DHT22;11445;53.816;8.902;2023-03-11T06:27:54;1.40;99.90
22558;DHT22;11445;53.816;8.902;2023-03-11T06:30:22;1.40;99.90
22558;DHT22;11445;53.816;8.902;2023-03-11T06:32:49;1.40;99.90
22558;DHT22;11445;53.816;8.902;2023-03-11T06:35:16;1.30;99.90
22558;DHT22;11445;53.816;8.902;2023-03-11T06:37:43;1.40;99.90
22558;DHT22;11445;53.816;8.902;2023-03-11T06:40:11;1.40;99.90
22558;DHT22;11445;53.816;8.902;2023-03-11T06:42:39;1.40;99.90
22558;DHT22;11445;53.816;8.902;2023-03-11T06:45:08;1.40;99.90
22558;DHT22;11445;53.816;8.902;2023-03-11T06:47:35;1.40;99.90
22558;DHT22;11445;53.816;8.902;2023-03-11T06:50:02;1.50;99.90
22558;DHT22;11445;53.816;8.902;2023-03-11T06:52:32;1.40;99.90
22558;DHT22;11445;53.816;8.902;2023-03-11T06:54:59;1.50;99.90
22558;DHT22;11445;53.816;8.902;2023-03-11T06:57:26;1.50;99.90
22558;DHT22;11445;53.816;8.902;2023-03-11T06:59:54;1.50;99.90
22558;DHT22;11445;53.816;8.902;2023-03-11T07:02:22;1.50;99.90
22558;DHT22;11445;53.816;8.902;2023-03-11T07:04:49;1.60;99.90
22558;DHT22;11445;53.816;8.902;2023-03-11T07:07:16;1.50;99.90
22558;DHT22;11445;53.816;8.902;2023-03-11T07:09:44;1.60;99.90
22558;DHT22;11445;53.816;8.902;2023-03-11T07:12:11;1.60;99.90
22558;DHT22;11445;53.816;8.902;2023-03-11T07:14:39;1.70;99.90
22558;DHT22;11445;53.816;8.902;2023-03-11T07:17:06;1.70;99.90
22558;DHT22;11445;53.816;8.902;2023-03-11T07:19:34;1.70;99.90
22558;DHT22;11445;53.816;8.902;2023-03-11T07:22:01;1.70;99.90
22558;DHT22;11445;53.816;8.902;2023-03-11T07:24:28;1.70;99.90
22558;DHT22;11445;53.816;8.902;2023-03-11T07:26:55;1.80;99.90
22558;DHT22;11445;53.816;8.902;2023-03-11T07:29:22;1.80;99.90
22558;DHT22;11445;53.816;8.902;2023-03-11T07:31:49;1.80;99.90
22558;DHT22;11445;53.816;8.902;2023-03-11T07:34:17;1.90;99.90
22558;DHT22;11445;53.816;8.902;2023-03-11T07:36:45;2.00;99.90
22558;DHT22;11445;53.816;8.902;2023-03-11T07:39:14;2.00;99.90
22558;DHT22;11445;53.816;8.902;2023-03-11T07:41:42;2.10;99.90
22558;DHT22;11445;53.816;8.902;2023-03-11T07:44:10;2.10;99.90
22558;DHT22;11445;53.816;8.902;2023-03-11T07:46:38;2.20;99.90
22558;DHT22;11445;53.816;8.902;2023-03-11T07:49:05;2.20;99.90
22558;DHT22;11445;53.816;8.902;2023-03-11T07:51:34;2.30;99.90
22558;DHT22;11445;53.816;8.902;2023-03-11T07:54:03;2.30;99.90
22558;DHT22;11445;53.816;8.902;2023-03-11T07:56:32;2.30;99.90
22558;DHT22;11445;53.816;8.902;2023-03-11T07:59:00;2.40;99.90
22558;DHT22;11445;53.816;8.902;2023-03-11T08:01:30;2.40;99.90
22558;DHT22;11445;53.816;8.902;2023-03-11T08:04:01;2.50;99.90
22558;DHT22;11445;53.816;8.902;2023-03-11T08:06:30;2.50;99.90
22558;DHT22;11445;53.816;8.902;2023-03-11T08:08:59;2.50;99.90
22558;DHT22;11445;53.816;8.902;2023-03-11T08:11:28;2.60;99.90
22558;DHT22;11445;53.816;8.902;2023-03-11T08:13:55;2.60;99.90
22558;DHT22;11445;53.816;8.902;2023-03-11T08:16:24;2.60;99.90
22558;DHT22;11445;53.816;8.902;2023-03-11T08:18:52;2.60;99.90
22558;DHT22;11445;53.816;8.902;2023-03-11T08:21:20;2.70;99.90
22558;DHT22;11445;53.816;8.902;2023-03-11T08:23:48;2.80;99.90
22558;DHT22;11445;53.816;8.902;2023-03-11T08:26:17;2.80;99.90
22558;DHT22;11445;53.816;8.902;2023-03-11T08:28:46;2.90;99.90
22558;DHT22;11445;53.816;8.902;2023-03-11T08:31:14;2.90;99.90
22558;DHT22;11445;53.816;8.902;2023-03-11T08:33:42;3.10;99.90
22558;DHT22;11445;53.816;8.902;2023-03-11T08:36:09;3.10;99.90
22558;DHT22;11445;53.816;8.902;2023-03-11T08:38:36;3.20;99.90
22558;DHT22;11445;53.816;8.902;2023-03-11T08:41:04;3.20;99.90
22558;DHT22;11445;53.816;8.902;2023-03-11T08:43:31;3.20;99.90
22558;DHT22;11445;53.816;8.902;2023-03-11T08:46:00;3.50;99.90
22558;DHT22;11445;53.816;8.902;2023-03-11T08:48:28;3.50;99.90
22558;DHT22;11445;53.816;8.902;2023-03-11T08:50:55;3.60;99.90
22558;DHT22;11445;53.816;8.902;2023-03-11T08:53:22;3.60;99.90
22558;DHT22;11445;53.816;8.902;2023-03-11T08:55:50;3.60;99.90
22558;DHT22;11445;53.816;8.902;2023-03-11T08:58:17;3.70;99.90
22558;DHT22;11445;53.816;8.902;2023-03-11T09:00:46;3.70;99.90
22558;DHT22;11445;53.816;8.902;2023-03-11T09:03:14;3.80;99.90
22558;DHT22;11445;53.816;8.902;2023-03-11T09:05:41;3.70;99.90
22558;DHT22;11445;53.816;8.902;2023-03-11T09:08:08;3.80;99.90
22558;DHT22;11445;53.816;8.902;2023-03-11T09:10:35;4.00;99.90
22558;DHT22;11445;53.816;8.902;2023-03-11T09:13:03;4.20;99.90
22558;DHT22;11445;53.816;8.902;2023-03-11T09:15:30;4.10;99.90
22558;DHT22;11445;53.816;8.902;2023-03-11T09:17:57;4.10;99.90
22558;DHT22;11445;53.816;8.902;2023-03-11T09:20:26;4.10;99.90
22558;DHT22;11445;53.816;8.902;2023-03-11T09:22:53;4.00;99.90
22558;DHT22;11445;53.816;8.902;2023-03-11T09:25:20;4.00;99.90
22558;DHT22;11445;53.816;8.902;2023-03-11T09:27:47;4.00;99.90
22558;DHT22;11445;53.816;8.902;2023-03-11T09:30:14;4.00;99.90
22558;DHT22;11445;53.816;8.902;2023-03-11T09:32:41;4.00;99.90
22558;DHT22;11445;53.816;8.902;2023-03-11T09:35:09;4.10;99.90
22558;DHT22;11445;53.816;8.902;2023-03-11T09:37:37;4.10;99.90
22558;DHT22;11445;53.816;8.902;2023-03-11T09:40:05;4.10;99.90
22558;DHT22;11445;53.816;8.902;2023-03-11T09:42:37;4.00;99.90
22558;DHT22;11445;53.816;8.902;2023-03-11T09:45:14;4.10;99.90
22558;DHT22;11445;53.816;8.902;2023-03-11T09:47:58;4.10;99.90
22558;DHT22;11445;53.816;8.902;2023-03-11T09:50:30;4.20;99.90
22558;DHT22;11445;53.816;8.902;2023-03-11T09:53:18;4.20;99.90
22558;DHT22;11445;53.816;8.902;2023-03-11T09:55:53;4.20;99.90
22558;DHT22;11445;53.816;8.902;2023-03-11T09:58:30;4.30;99.90
22558;DHT22;11445;53.816;8.902;2023-03-11T10:01:01;4.20;99.90
22558;DHT22;11445;53.816;8.902;2023-03-11T10:03:32;4.20;99.90
22558;DHT22;11445;53.816;8.902;2023-03-11T10:06:11;4.20;99.90
22558;DHT22;11445;53.816;8.902;2023-03-11T10:08:43;4.20;99.90
22558;DHT22;11445;53.816;8.902;2023-03-11T10:11:19;4.20;99.90
22558;DHT22;11445;53.816;8.902;2023-03-11T10:13:56;4.20;99.90
22558;DHT22;11445;53.816;8.902;2023-03-11T10:16:30;4.20;99.90
22558;DHT22;11445;53.816;8.902;2023-03-11T10:19:03;4.30;99.90
22558;DHT22;11445;53.816;8.902;2023-03-11T10:21:43;4.30;99.90
22558;DHT22;11445;53.816;8.902;2023-03-11T10:24:38;4.30;99.90
22558;DHT22;11445;53.816;8.902;2023-03-11T10:27:14;4.30;99.90
22558;DHT22;11445;53.816;8.902;2023-03-11T10:29:50;4.30;99.90
22558;DHT22;11445;53.816;8.902;2023-03-11T10:32:23;4.30;99.90
22558;DHT22;11445;53.816;8.902;2023-03-11T10:34:53;4.30;99.90
22558;DHT22;11445;53.816;8.902;2023-03-11T10:37:24;4.20;99.90
22558;DHT22;11445;53.816;8.902;2023-03-11T10:39:53;4.30;99.90
22558;DHT22;11445;53.816;8.902;2023-03-11T10:42:23;4.30;99.90
22558;DHT22;11445;53.816;8.902;2023-03-11T10:44:50;4.40;99.90
22558;DHT22;11445;53.816;8.902;2023-03-11T10:47:19;4.40;99.90
22558;DHT22;11445;53.816;8.902;2023-03-11T10:49:47;4.40;99.90
22558;DHT22;11445;53.816;8.902;2023-03-11T10:52:14;4.40;99.90
22558;DHT22;11445;53.816;8.902;2023-03-11T10:54:43;4.40;99.90
22558;DHT22;11445;53.816;8.902;2023-03-11T10:57:24;4.50;99.90
22558;DHT22;11445;53.816;8.902;2023-03-11T10:59:53;4.50;99.90
22558;DHT22;11445;53.816;8.902;2023-03-11T11:02:26;4.50;99.90
22558;DHT22;11445;53.816;8.902;2023-03-11T11:05:10;4.60;99.90
22558;DHT22;11445;53.816;8.902;2023-03-11T11:07:48;5.10;99.90
22558;DHT22;11445;53.816;8.902;2023-03-11T11:10:18;5.90;99.90
22558;DHT22;11445;53.816;8.902;2023-03-11T11:12:55;6.10;99.90
22558;DHT22;11445;53.816;8.902;2023-03-11T11:15:24;6.00;99.90
22558;DHT22;11445;53.816;8.902;2023-03-11T11:17:52;5.80;99.90
22558;DHT22;11445;53.816;8.902;2023-03-11T11:20:21;5.60;99.90
22558;DHT22;11445;53.816;8.902;2023-03-11T11:22:51;5.40;99.90
22558;DHT22;11445;53.816;8.902;2023-03-11T11:25:33;5.20;99.90
22558;DHT22;11445;53.816;8.902;2023-03-11T11:28:11;5.20;99.90
22558;DHT22;11445;53.816;8.902;2023-03-11T11:30:52;5.20;99.90
22558;DHT22;11445;53.816;8.902;2023-03-11T11:33:25;5.20;99.90
22558;DHT22;11445;53.816;8.902;2023-03-11T11:35:54;5.20;99.90
22558;DHT22;11445;53.816;8.902;2023-03-11T11:38:23;5.20;99.90
22558;DHT22;11445;53.816;8.902;2023-03-11T11:40:53;5.20;99.90
22558;DHT22;11445;53.816;8.902;2023-03-11T11:43:29;5.20;99.90
22558;DHT22;11445;53.816;8.902;2023-03-11T11:46:02;5.40;99.90
22558;DHT22;11445;53.816;8.902;2023-03-11T11:48:34;5.50;99.90
22558;DHT22;11445;53.816;8.902;2023-03-11T11:51:11;5.50;99.90
22558;DHT22;11445;53.816;8.902;2023-03-11T11:53:43;5.60;99.90
22558;DHT22;11445;53.816;8.902;2023-03-11T11:56:13;5.70;99.90
22558;DHT22;11445;53.816;8.902;2023-03-11T11:58:42;5.70;99.90
22558;DHT22;11445;53.816;8.902;2023-03-11T12:01:18;5.70;99.90
22558;DHT22;11445;53.816;8.902;2023-03-11T12:04:12;5.80;99.90
22558;DHT22;11445;53.816;8.902;2023-03-11T12:06:49;5.80;99.90
22558;DHT22;11445;53.816;8.902;2023-03-11T12:09:25;5.70;99.90
22558;DHT22;11445;53.816;8.902;2023-03-11T12:12:02;5.70;99.90
22558;DHT22;11445;53.816;8.902;2023-03-11T12:14:39;5.70;99.90
22558;DHT22;11445;53.816;8.902;2023-03-11T12:17:10;5.70;99.90
22558;DHT22;11445;53.816;8.902;2023-03-11T12:19:42;5.70;99.90
22558;DHT22;11445;53.816;8.902;2023-03-11T12:25:35;5.80;99.90
22558;DHT22;11445;53.816;8.902;2023-03-11T12:28:15;5.70;99.90
22558;DHT22;11445;53.816;8.902;2023-03-11T12:30:47;5.60;99.90
22558;DHT22;11445;53.816;8.902;2023-03-11T12:33:22;5.60;99.90
22558;DHT22;11445;53.816;8.902;2023-03-11T12:35:51;5.60;99.90
22558;DHT22;11445;53.816;8.902;2023-03-11T12:38:27;5.70;99.90
22558;DHT22;11445;53.816;8.902;2023-03-11T12:40:57;5.80;99.90
22558;DHT22;11445;53.816;8.902;2023-03-11T12:49:37;5.90;99.90
22558;DHT22;11445;53.816;8.902;2023-03-11T12:52:16;6.00;99.90
22558;DHT22;11445;53.816;8.902;2023-03-11T12:54:44;6.00;99.90
22558;DHT22;11445;53.816;8.902;2023-03-11T12:57:31;6.00;99.90
22558;DHT22;11445;53.816;8.902;2023-03-11T13:00:21;6.00;99.90
22558;DHT22;11445;53.816;8.902;2023-03-11T13:03:16;6.00;99.90
22558;DHT22;11445;53.816;8.902;2023-03-11T13:05:56;6.00;99.90
22558;DHT22;11445;53.816;8.902;2023-03-11T13:08:26;6.00;99.90
22558;DHT22;11445;53.816;8.902;2023-03-11T13:10:55;6.00;99.90
22558;DHT22;11445;53.816;8.902;2023-03-11T13:13:30;6.00;99.90
22558;DHT22;11445;53.816;8.902;2023-03-11T13:16:36;6.00;99.90
22558;DHT22;11445;53.816;8.902;2023-03-11T13:19:45;5.90;99.90
22558;DHT22;11445;53.816;8.902;2023-03-11T13:22:40;5.80;99.90
22558;DHT22;11445;53.816;8.902;2023-03-11T13:25:38;5.80;99.90
22558;DHT22;11445;53.816;8.902;2023-03-11T13:31:40;5.80;99.90
22558;DHT22;11445;53.816;8.902;2023-03-11T13:34:14;5.90;99.90
22558;DHT22;11445;53.816;8.902;2023-03-11T13:36:55;5.90;99.90
22558;DHT22;11445;53.816;8.902;2023-03-11T13:42:28;5.90;99.90
22558;DHT22;11445;53.816;8.902;2023-03-11T13:44:56;6.00;99.90
22558;DHT22;11445;53.816;8.902;2023-03-11T13:47:25;6.00;99.90
22558;DHT22;11445;53.816;8.902;2023-03-11T13:49:54;6.00;99.90
22558;DHT22;11445;53.816;8.902;2023-03-11T13:52:27;6.00;99.90
22558;DHT22;11445;53.816;8.902;2023-03-11T13:55:00;6.10;99.90
22558;DHT22;11445;53.816;8.902;2023-03-11T13:57:30;6.00;99.90
22558;DHT22;11445;53.816;8.902;2023-03-11T14:00:04;6.00;99.90
22558;DHT22;11445;53.816;8.902;2023-03-11T14:02:44;6.00;99.90
22558;DHT22;11445;53.816;8.902;2023-03-11T14:05:15;6.00;99.90
22558;DHT22;11445;53.816;8.902;2023-03-11T14:07:43;6.00;99.90
22558;DHT22;11445;53.816;8.902;2023-03-11T14:10:27;6.00;99.90
22558;DHT22;11445;53.816;8.902;2023-03-11T14:13:14;6.00;99.90
22558;DHT22;11445;53.816;8.902;2023-03-11T14:15:46;6.00;99.90
22558;DHT22;11445;53.816;8.902;2023-03-11T14:18:32;6.00;99.90
22558;DHT22;11445;53.816;8.902;2023-03-11T14:21:00;6.10;99.90
22558;DHT22;11445;53.816;8.902;2023-03-11T14:23:33;6.10;99.90
22558;DHT22;11445;53.816;8.902;2023-03-11T14:26:05;6.00;99.90
22558;DHT22;11445;53.816;8.902;2023-03-11T14:28:36;5.60;99.90
22558;DHT22;11445;53.816;8.902;2023-03-11T14:31:05;5.20;99.90
22558;DHT22;11445;53.816;8.902;2023-03-11T14:33:32;4.70;99.90
22558;DHT22;11445;53.816;8.902;2023-03-11T14:36:01;4.30;99.90
22558;DHT22;11445;53.816;8.902;2023-03-11T14:38:30;4.10;99.90
22558;DHT22;11445;53.816;8.902;2023-03-11T14:40:59;3.80;99.90
22558;DHT22;11445;53.816;8.902;2023-03-11T14:43:32;3.70;99.90
22558;DHT22;11445;53.816;8.902;2023-03-11T14:46:02;3.70;99.90
22558;DHT22;11445;53.816;8.902;2023-03-11T14:48:34;3.70;99.90
22558;DHT22;11445;53.816;8.902;2023-03-11T14:51:07;3.80;99.90
22558;DHT22;11445;53.816;8.902;2023-03-11T14:53:41;3.90;99.90
22558;DHT22;11445;53.816;8.902;2023-03-11T14:56:13;3.90;99.90
22558;DHT22;11445;53.816;8.902;2023-03-11T14:58:46;4.00;99.90
22558;DHT22;11445;53.816;8.902;2023-03-11T15:01:17;4.10;99.90
22558;DHT22;11445;53.816;8.902;2023-03-11T15:03:47;4.20;99.90
22558;DHT22;11445;53.816;8.902;2023-03-11T15:06:17;4.30;99.90
22558;DHT22;11445;53.816;8.902;2023-03-11T15:08:47;4.40;99.90
22558;DHT22;11445;53.816;8.902;2023-03-11T15:11:19;4.50;99.90
22558;DHT22;11445;53.816;8.902;2023-03-11T15:13:48;4.60;99.90
22558;DHT22;11445;53.816;8.902;2023-03-11T15:16:30;4.70;99.90
22558;DHT22;11445;53.816;8.902;2023-03-11T15:18:59;4.80;99.90
22558;DHT22;11445;53.816;8.902;2023-03-11T15:21:26;4.90;99.90
22558;DHT22;11445;53.816;8.902;2023-03-11T15:23:59;5.00;99.90
22558;DHT22;11445;53.816;8.902;2023-03-11T15:26:29;5.00;99.90
22558;DHT22;11445;53.816;8.902;2023-03-11T15:28:59;5.10;99.90
22558;DHT22;11445;53.816;8.902;2023-03-11T15:31:29;5.20;99.90
22558;DHT22;11445;53.816;8.902;2023-03-11T15:34:23;5.20;99.90
22558;DHT22;11445;53.816;8.902;2023-03-11T15:37:17;5.30;99.90
22558;DHT22;11445;53.816;8.902;2023-03-11T15:39:47;5.40;99.90
22558;DHT22;11445;53.816;8.902;2023-03-11T15:42:23;5.40;99.90
22558;DHT22;11445;53.816;8.902;2023-03-11T15:45:09;5.30;99.90
22558;DHT22;11445;53.816;8.902;2023-03-11T15:47:37;5.30;99.90
22558;DHT22;11445;53.816;8.902;2023-03-11T15:50:19;5.30;99.90
22558;DHT22;11445;53.816;8.902;2023-03-11T15:52:48;5.80;99.90
22558;DHT22;11445;53.816;8.902;2023-03-11T15:55:15;5.70;99.90
22558;DHT22;11445;53.816;8.902;2023-03-11T15:57:44;5.60;99.90
22558;DHT22;11445;53.816;8.902;2023-03-11T16:00:18;5.50;99.90
22558;DHT22;11445;53.816;8.902;2023-03-11T16:02:47;5.40;99.90
22558;DHT22;11445;53.816;8.902;2023-03-11T16:05:16;5.30;99.90
22558;DHT22;11445;53.816;8.902;2023-03-11T16:07:43;5.30;99.90
22558;DHT22;11445;53.816;8.902;2023-03-11T16:10:12;5.20;99.90
22558;DHT22;11445;53.816;8.902;2023-03-11T16:12:40;5.20;99.90
22558;DHT22;11445;53.816;8.902;2023-03-11T16:15:19;5.10;99.90
22558;DHT22;11445;53.816;8.902;2023-03-11T16:17:49;5.10;99.90
22558;DHT22;11445;53.816;8.902;2023-03-11T16:20:17;5.10;99.90
22558;DHT22;11445;53.816;8.902;2023-03-11T16:22:45;5.20;99.90